sensor_id;sensor_type;location;lat;lon;timestamp;pressure;altitude;pressure_sealevel;temperature;humidity
74343;BME280;62767;50.300;8.070;2022-08-19T00:00:08;99631.81;;;21.98;60.26
74343;BME280;62767;50.300;8.070;2022-08-19T00:02:35;99627.72;;;22.22;59.41
74343;BME280;62767;50.300;8.070;2022-08-19T00:05:01;99618.53;;;22.14;59.72
74343;BME280;62767;50.300;8.070;2022-08-19T00:07:26;99623.53;;;22.04;60.12
74343;BME280;62767;50.300;8.070;2022-08-19T00:09:52;99634.16;;;22.01;60.09
74343;BME280;62767;50.300;8.070;2022-08-19T00:12:19;99631.22;;;22.02;59.80
74343;BME280;62767;50.300;8.070;2022-08-19T00:14:44;99616.59;;;22.15;59.41
74343;BME280;62767;50.300;8.070;2022-08-19T00:17:10;99623.66;;;22.18;59.49
74343;BME280;62767;50.300;8.070;2022-08-19T00:19:36;99622.88;;;21.96;59.89
74343;BME280;62767;50.300;8.070;2022-08-19T00:22:03;99629.28;;;22.03;59.60
74343;BME280;62767;50.300;8.070;2022-08-19T00:24:31;99638.66;;;22.08;59.61
74343;BME280;62767;50.300;8.070;2022-08-19T00:26:56;99644.91;;;22.17;59.61
74343;BME280;62767;50.300;8.070;2022-08-19T00:29:24;99641.16;;;21.97;60.07
74343;BME280;62767;50.300;8.070;2022-08-19T00:31:51;99641.78;;;21.99;59.75
74343;BME280;62767;50.300;8.070;2022-08-19T00:34:20;99641.06;;;22.18;59.47
74343;BME280;62767;50.300;8.070;2022-08-19T00:36:47;99640.81;;;22.13;59.45
74343;BME280;62767;50.300;8.070;2022-08-19T00:39:15;99635.94;;;22.15;59.65
74343;BME280;62767;50.300;8.070;2022-08-19T00:41:43;99638.31;;;22.18;59.58
74343;BME280;62767;50.300;8.070;2022-08-19T00:44:15;99635.81;;;22.30;59.20
74343;BME280;62767;50.300;8.070;2022-08-19T00:46:44;99636.25;;;22.33;58.81
74343;BME280;62767;50.300;8.070;2022-08-19T00:49:31;99635.16;;;22.28;59.04
74343;BME280;62767;50.300;8.070;2022-08-19T00:52:03;99635.00;;;22.36;59.29
74343;BME280;62767;50.300;8.070;2022-08-19T00:54:30;99614.56;;;22.24;59.48
74343;BME280;62767;50.300;8.070;2022-08-19T00:56:58;99619.25;;;22.36;59.12
74343;BME280;62767;50.300;8.070;2022-08-19T00:59:24;99628.06;;;22.12;59.61
74343;BME280;62767;50.300;8.070;2022-08-19T01:01:50;99628.56;;;22.22;59.39
74343;BME280;62767;50.300;8.070;2022-08-19T01:04:16;99624.88;;;22.15;59.87
74343;BME280;62767;50.300;8.070;2022-08-19T01:06:42;99631.78;;;21.91;60.81
74343;BME280;62767;50.300;8.070;2022-08-19T01:09:08;99628.63;;;22.01;60.71
74343;BME280;62767;50.300;8.070;2022-08-19T01:11:38;99621.69;;;22.11;60.30
74343;BME280;62767;50.300;8.070;2022-08-19T01:14:06;99619.06;;;21.97;60.71
74343;BME280;62767;50.300;8.070;2022-08-19T01:16:32;99619.25;;;21.95;60.55
74343;BME280;62767;50.300;8.070;2022-08-19T01:18:59;99599.13;;;22.01;60.56
74343;BME280;62767;50.300;8.070;2022-08-19T01:21:34;99601.25;;;21.99;60.77
74343;BME280;62767;50.300;8.070;2022-08-19T01:24:03;99597.03;;;22.10;60.35
74343;BME280;62767;50.300;8.070;2022-08-19T01:26:29;99595.66;;;21.92;61.33
74343;BME280;62767;50.300;8.070;2022-08-19T01:28:57;99594.03;;;22.05;60.86
74343;BME280;62767;50.300;8.070;2022-08-19T01:31:25;99591.88;;;21.93;60.71
74343;BME280;62767;50.300;8.070;2022-08-19T01:33:53;99597.75;;;21.84;61.06
74343;BME280;62767;50.300;8.070;2022-08-19T01:36:30;99590.84;;;22.01;60.40
74343;BME280;62767;50.300;8.070;2022-08-19T01:38:56;99593.72;;;21.86;60.89
74343;BME280;62767;50.300;8.070;2022-08-19T01:41:23;99579.75;;;21.95;60.68
74343;BME280;62767;50.300;8.070;2022-08-19T01:43:50;99583.31;;;21.82;61.05
74343;BME280;62767;50.300;8.070;2022-08-19T01:46:17;99580.56;;;21.82;61.40
74343;BME280;62767;50.300;8.070;2022-08-19T01:48:43;99580.09;;;21.78;61.28
74343;BME280;62767;50.300;8.070;2022-08-19T01:51:10;99579.59;;;21.61;61.94
74343;BME280;62767;50.300;8.070;2022-08-19T01:53:37;99573.25;;;21.67;62.06
74343;BME280;62767;50.300;8.070;2022-08-19T01:56:03;99575.66;;;21.84;61.24
74343;BME280;62767;50.300;8.070;2022-08-19T01:58:32;99574.44;;;21.93;61.11
74343;BME280;62767;50.300;8.070;2022-08-19T02:01:01;99583.63;;;21.65;61.84
74343;BME280;62767;50.300;8.070;2022-08-19T02:03:27;99581.72;;;21.66;61.74
74343;BME280;62767;50.300;8.070;2022-08-19T02:05:56;99590.78;;;21.53;62.10
74343;BME280;62767;50.300;8.070;2022-08-19T02:08:26;99597.69;;;21.42;62.36
74343;BME280;62767;50.300;8.070;2022-08-19T02:10:52;99594.09;;;21.42;62.34
74343;BME280;62767;50.300;8.070;2022-08-19T02:13:19;99590.03;;;21.16;63.28
74343;BME280;62767;50.300;8.070;2022-08-19T02:15:44;99592.25;;;21.28;63.48
74343;BME280;62767;50.300;8.070;2022-08-19T02:18:10;99597.44;;;21.37;63.40
74343;BME280;62767;50.300;8.070;2022-08-19T02:20:37;99597.13;;;21.54;62.59
74343;BME280;62767;50.300;8.070;2022-08-19T02:23:04;99603.34;;;21.62;62.33
74343;BME280;62767;50.300;8.070;2022-08-19T02:25:30;99597.72;;;21.49;62.23
74343;BME280;62767;50.300;8.070;2022-08-19T02:27:56;99597.63;;;21.64;62.00
74343;BME280;62767;50.300;8.070;2022-08-19T02:30:21;99595.63;;;21.51;62.87
74343;BME280;62767;50.300;8.070;2022-08-19T02:32:47;99591.50;;;21.68;61.68
74343;BME280;62767;50.300;8.070;2022-08-19T02:35:13;99592.88;;;21.51;62.09
74343;BME280;62767;50.300;8.070;2022-08-19T02:37:43;99605.78;;;21.44;62.19
74343;BME280;62767;50.300;8.070;2022-08-19T02:40:29;99601.72;;;21.18;63.06
74343;BME280;62767;50.300;8.070;2022-08-19T02:42:55;99608.56;;;21.29;62.81
74343;BME280;62767;50.300;8.070;2022-08-19T02:45:21;99596.88;;;21.48;62.54
74343;BME280;62767;50.300;8.070;2022-08-19T02:47:47;99600.19;;;21.37;63.18
74343;BME280;62767;50.300;8.070;2022-08-19T02:50:13;99613.13;;;21.65;62.12
74343;BME280;62767;50.300;8.070;2022-08-19T02:52:40;99608.56;;;21.51;61.97
74343;BME280;62767;50.300;8.070;2022-08-19T02:55:06;99610.56;;;21.35;63.18
74343;BME280;62767;50.300;8.070;2022-08-19T02:57:32;99609.84;;;21.48;62.71
74343;BME280;62767;50.300;8.070;2022-08-19T02:59:58;99608.34;;;21.24;63.09
74343;BME280;62767;50.300;8.070;2022-08-19T03:02:24;99606.78;;;21.15;63.81
74343;BME280;62767;50.300;8.070;2022-08-19T03:04:49;99619.50;;;21.37;62.53
74343;BME280;62767;50.300;8.070;2022-08-19T03:07:16;99624.16;;;21.37;62.50
74343;BME280;62767;50.300;8.070;2022-08-19T03:09:42;99623.31;;;20.93;63.73
74343;BME280;62767;50.300;8.070;2022-08-19T03:12:08;99628.03;;;20.99;63.51
74343;BME280;62767;50.300;8.070;2022-08-19T03:14:34;99634.47;;;21.07;62.94
74343;BME280;62767;50.300;8.070;2022-08-19T03:17:00;99632.81;;;20.69;63.94
74343;BME280;62767;50.300;8.070;2022-08-19T03:19:26;99634.63;;;20.77;64.10
74343;BME280;62767;50.300;8.070;2022-08-19T03:21:53;99636.91;;;20.95;63.27
74343;BME280;62767;50.300;8.070;2022-08-19T03:24:19;99634.09;;;21.10;62.64
74343;BME280;62767;50.300;8.070;2022-08-19T03:26:47;99629.16;;;21.05;62.51
74343;BME280;62767;50.300;8.070;2022-08-19T03:29:15;99627.47;;;21.04;62.73
74343;BME280;62767;50.300;8.070;2022-08-19T03:31:42;99635.97;;;20.88;63.31
74343;BME280;62767;50.300;8.070;2022-08-19T03:34:10;99628.91;;;20.78;63.83
74343;BME280;62767;50.300;8.070;2022-08-19T03:36:37;99630.06;;;20.69;64.71
74343;BME280;62767;50.300;8.070;2022-08-19T03:39:03;99622.81;;;20.83;64.79
74343;BME280;62767;50.300;8.070;2022-08-19T03:41:32;99621.53;;;20.64;65.65
74343;BME280;62767;50.300;8.070;2022-08-19T03:43:58;99632.66;;;20.56;65.57
74343;BME280;62767;50.300;8.070;2022-08-19T03:46:27;99622.72;;;20.55;65.31
74343;BME280;62767;50.300;8.070;2022-08-19T03:48:55;99621.19;;;20.74;64.81
74343;BME280;62767;50.300;8.070;2022-08-19T03:51:26;99621.03;;;20.75;64.26
74343;BME280;62767;50.300;8.070;2022-08-19T03:53:53;99619.31;;;20.74;64.34
74343;BME280;62767;50.300;8.070;2022-08-19T03:56:19;99623.06;;;20.52;65.01
74343;BME280;62767;50.300;8.070;2022-08-19T03:58:46;99620.88;;;20.62;64.93
74343;BME280;62767;50.300;8.070;2022-08-19T04:01:15;99627.16;;;20.41;65.63
74343;BME280;62767;50.300;8.070;2022-08-19T04:03:41;99631.50;;;20.50;65.12
74343;BME280;62767;50.300;8.070;2022-08-19T04:06:20;99638.78;;;20.37;65.82
74343;BME280;62767;50.300;8.070;2022-08-19T04:08:48;99645.63;;;20.11;66.80
74343;BME280;62767;50.300;8.070;2022-08-19T04:11:18;99643.66;;;20.05;66.89
74343;BME280;62767;50.300;8.070;2022-08-19T04:13:47;99656.94;;;20.16;66.23
74343;BME280;62767;50.300;8.070;2022-08-19T04:16:13;99655.56;;;20.27;66.10
74343;BME280;62767;50.300;8.070;2022-08-19T04:18:40;99657.50;;;20.11;66.76
74343;BME280;62767;50.300;8.070;2022-08-19T04:21:07;99654.38;;;20.15;66.47
74343;BME280;62767;50.300;8.070;2022-08-19T04:23:34;99661.94;;;19.98;67.17
74343;BME280;62767;50.300;8.070;2022-08-19T04:26:02;99654.56;;;20.28;65.91
74343;BME280;62767;50.300;8.070;2022-08-19T04:28:27;99662.53;;;20.08;66.11
74343;BME280;62767;50.300;8.070;2022-08-19T04:30:54;99662.53;;;20.23;65.82
74343;BME280;62767;50.300;8.070;2022-08-19T04:33:23;99658.31;;;20.27;65.64
74343;BME280;62767;50.300;8.070;2022-08-19T04:35:50;99662.25;;;19.88;67.23
74343;BME280;62767;50.300;8.070;2022-08-19T04:38:18;99662.63;;;20.00;66.81
74343;BME280;62767;50.300;8.070;2022-08-19T04:40:47;99659.88;;;19.70;68.03
74343;BME280;62767;50.300;8.070;2022-08-19T04:43:39;99658.06;;;19.77;67.94
74343;BME280;62767;50.300;8.070;2022-08-19T04:46:10;99669.38;;;19.59;68.31
74343;BME280;62767;50.300;8.070;2022-08-19T04:48:37;99658.72;;;19.79;67.43
74343;BME280;62767;50.300;8.070;2022-08-19T04:51:05;99658.56;;;19.96;66.68
74343;BME280;62767;50.300;8.070;2022-08-19T04:53:33;99655.13;;;19.94;66.54
74343;BME280;62767;50.300;8.070;2022-08-19T04:56:05;99659.28;;;19.75;67.28
74343;BME280;62767;50.300;8.070;2022-08-19T04:58:33;99655.44;;;19.84;67.30
74343;BME280;62767;50.300;8.070;2022-08-19T05:00:59;99659.03;;;19.70;67.73
74343;BME280;62767;50.300;8.070;2022-08-19T05:03:25;99657.22;;;19.77;67.41
74343;BME280;62767;50.300;8.070;2022-08-19T05:05:51;99661.28;;;19.81;67.85
74343;BME280;62767;50.300;8.070;2022-08-19T05:08:19;99660.81;;;19.92;67.15
74343;BME280;62767;50.300;8.070;2022-08-19T05:10:47;99666.63;;;19.59;68.25
74343;BME280;62767;50.300;8.070;2022-08-19T05:13:14;99671.06;;;19.83;67.39
74343;BME280;62767;50.300;8.070;2022-08-19T05:15:40;99681.13;;;19.76;67.84
74343;BME280;62767;50.300;8.070;2022-08-19T05:18:06;99679.75;;;19.72;67.83
74343;BME280;62767;50.300;8.070;2022-08-19T05:20:50;99686.53;;;19.70;68.19
74343;BME280;62767;50.300;8.070;2022-08-19T05:23:34;99686.94;;;20.11;66.82
74343;BME280;62767;50.300;8.070;2022-08-19T05:25:59;99690.22;;;20.21;66.66
74343;BME280;62767;50.300;8.070;2022-08-19T05:28:25;99686.53;;;20.14;66.74
74343;BME280;62767;50.300;8.070;2022-08-19T05:30:50;99684.44;;;20.31;65.79
74343;BME280;62767;50.300;8.070;2022-08-19T05:33:17;99685.09;;;20.33;65.55
74343;BME280;62767;50.300;8.070;2022-08-19T05:35:43;99693.53;;;20.46;65.56
74343;BME280;62767;50.300;8.070;2022-08-19T05:38:10;99690.13;;;20.59;64.86
74343;BME280;62767;50.300;8.070;2022-08-19T05:40:37;99687.75;;;20.56;65.19
74343;BME280;62767;50.300;8.070;2022-08-19T05:43:05;99680.81;;;20.96;63.42
74343;BME280;62767;50.300;8.070;2022-08-19T05:45:31;99680.97;;;20.73;64.92
74343;BME280;62767;50.300;8.070;2022-08-19T05:47:56;99676.06;;;20.69;64.73
74343;BME280;62767;50.300;8.070;2022-08-19T05:50:24;99672.69;;;20.73;64.67
74343;BME280;62767;50.300;8.070;2022-08-19T05:52:52;99679.59;;;20.48;65.68
74343;BME280;62767;50.300;8.070;2022-08-19T05:55:18;99676.84;;;20.63;65.41
74343;BME280;62767;50.300;8.070;2022-08-19T05:57:46;99675.09;;;20.62;65.40
74343;BME280;62767;50.300;8.070;2022-08-19T06:00:12;99679.47;;;20.41;66.15
74343;BME280;62767;50.300;8.070;2022-08-19T06:02:39;99688.41;;;20.43;66.28
74343;BME280;62767;50.300;8.070;2022-08-19T06:05:05;99687.47;;;20.51;65.87
74343;BME280;62767;50.300;8.070;2022-08-19T06:07:35;99688.38;;;20.73;65.28
74343;BME280;62767;50.300;8.070;2022-08-19T06:10:01;99687.09;;;21.12;64.35
74343;BME280;62767;50.300;8.070;2022-08-19T06:12:32;99687.38;;;21.17;64.11
74343;BME280;62767;50.300;8.070;2022-08-19T06:15:07;99688.03;;;21.19;63.81
74343;BME280;62767;50.300;8.070;2022-08-19T06:17:33;99686.75;;;21.36;63.42
74343;BME280;62767;50.300;8.070;2022-08-19T06:20:01;99698.31;;;21.32;63.53
74343;BME280;62767;50.300;8.070;2022-08-19T06:22:27;99702.72;;;21.05;64.51
74343;BME280;62767;50.300;8.070;2022-08-19T06:24:54;99711.34;;;21.38;63.34
74343;BME280;62767;50.300;8.070;2022-08-19T06:27:20;99705.00;;;21.37;63.31
74343;BME280;62767;50.300;8.070;2022-08-19T06:29:46;99710.97;;;21.90;61.79
74343;BME280;62767;50.300;8.070;2022-08-19T06:32:14;99707.75;;;21.87;61.63
74343;BME280;62767;50.300;8.070;2022-08-19T06:34:41;99710.19;;;21.75;62.47
74343;BME280;62767;50.300;8.070;2022-08-19T06:37:07;99720.25;;;22.11;61.90
74343;BME280;62767;50.300;8.070;2022-08-19T06:39:36;99731.41;;;22.31;60.88
74343;BME280;62767;50.300;8.070;2022-08-19T06:42:05;99729.63;;;22.51;60.29
74343;BME280;62767;50.300;8.070;2022-08-19T06:44:35;99729.09;;;22.76;59.53
74343;BME280;62767;50.300;8.070;2022-08-19T06:47:06;99723.41;;;22.84;59.19
74343;BME280;62767;50.300;8.070;2022-08-19T06:49:33;99718.69;;;23.39;57.32
74343;BME280;62767;50.300;8.070;2022-08-19T06:52:00;99722.78;;;23.77;55.16
74343;BME280;62767;50.300;8.070;2022-08-19T06:54:27;99728.81;;;24.65;53.02
74343;BME280;62767;50.300;8.070;2022-08-19T06:56:55;99726.72;;;24.54;53.49
74343;BME280;62767;50.300;8.070;2022-08-19T06:59:23;99735.44;;;25.09;51.25
74343;BME280;62767;50.300;8.070;2022-08-19T07:01:54;99736.78;;;25.38;50.55
74343;BME280;62767;50.300;8.070;2022-08-19T07:04:26;99731.56;;;26.67;47.56
74343;BME280;62767;50.300;8.070;2022-08-19T07:07:01;99732.75;;;25.34;51.00
74343;BME280;62767;50.300;8.070;2022-08-19T07:09:28;99727.09;;;25.47;50.60
74343;BME280;62767;50.300;8.070;2022-08-19T07:11:54;99736.91;;;26.07;49.15
74343;BME280;62767;50.300;8.070;2022-08-19T07:14:23;99742.31;;;25.00;51.78
74343;BME280;62767;50.300;8.070;2022-08-19T07:16:50;99735.66;;;25.78;49.78
74343;BME280;62767;50.300;8.070;2022-08-19T07:19:18;99741.97;;;27.27;46.84
74343;BME280;62767;50.300;8.070;2022-08-19T07:21:47;99742.91;;;27.21;46.05
74343;BME280;62767;50.300;8.070;2022-08-19T07:24:14;99740.97;;;28.17;44.05
74343;BME280;62767;50.300;8.070;2022-08-19T07:26:42;99748.63;;;27.68;45.37
74343;BME280;62767;50.300;8.070;2022-08-19T07:29:09;99743.13;;;28.15;44.22
74343;BME280;62767;50.300;8.070;2022-08-19T07:31:35;99746.56;;;27.75;44.68
74343;BME280;62767;50.300;8.070;2022-08-19T07:34:03;99742.63;;;28.30;43.52
74343;BME280;62767;50.300;8.070;2022-08-19T07:36:33;99759.28;;;25.23;51.04
74343;BME280;62767;50.300;8.070;2022-08-19T07:39:01;99755.63;;;26.18;48.72
74343;BME280;62767;50.300;8.070;2022-08-19T07:41:29;99754.03;;;26.47;48.31
74343;BME280;62767;50.300;8.070;2022-08-19T07:43:58;99753.16;;;26.28;48.40
74343;BME280;62767;50.300;8.070;2022-08-19T07:46:33;99758.06;;;26.70;47.38
74343;BME280;62767;50.300;8.070;2022-08-19T07:48:59;99752.25;;;27.68;44.75
74343;BME280;62767;50.300;8.070;2022-08-19T07:51:27;99741.34;;;27.67;44.88
74343;BME280;62767;50.300;8.070;2022-08-19T07:53:53;99752.06;;;26.54;47.96
74343;BME280;62767;50.300;8.070;2022-08-19T07:56:19;99739.59;;;27.84;44.69
74343;BME280;62767;50.300;8.070;2022-08-19T07:58:48;99743.66;;;27.09;46.84
74343;BME280;62767;50.300;8.070;2022-08-19T08:01:21;99744.22;;;27.18;46.35
74343;BME280;62767;50.300;8.070;2022-08-19T08:03:48;99749.31;;;27.21;46.58
74343;BME280;62767;50.300;8.070;2022-08-19T08:06:34;99748.31;;;25.99;49.80
74343;BME280;62767;50.300;8.070;2022-08-19T08:09:26;99738.31;;;25.91;50.11
74343;BME280;62767;50.300;8.070;2022-08-19T08:12:07;99763.09;;;24.77;53.65
74343;BME280;62767;50.300;8.070;2022-08-19T08:14:38;99757.00;;;25.14;52.57
74343;BME280;62767;50.300;8.070;2022-08-19T08:17:05;99743.00;;;24.89;52.83
74343;BME280;62767;50.300;8.070;2022-08-19T08:19:31;99748.59;;;24.75;53.84
74343;BME280;62767;50.300;8.070;2022-08-19T08:21:58;99745.50;;;25.73;50.26
74343;BME280;62767;50.300;8.070;2022-08-19T08:24:25;99752.84;;;25.93;49.77
74343;BME280;62767;50.300;8.070;2022-08-19T08:26:51;99754.91;;;25.72;50.78
74343;BME280;62767;50.300;8.070;2022-08-19T08:29:17;99751.31;;;25.65;51.04
74343;BME280;62767;50.300;8.070;2022-08-19T08:31:46;99751.59;;;26.32;48.42
74343;BME280;62767;50.300;8.070;2022-08-19T08:34:13;99748.22;;;26.30;48.65
74343;BME280;62767;50.300;8.070;2022-08-19T08:36:42;99757.06;;;25.39;52.25
74343;BME280;62767;50.300;8.070;2022-08-19T08:39:12;99762.75;;;25.82;51.23
74343;BME280;62767;50.300;8.070;2022-08-19T08:44:38;99773.63;;;26.09;49.57
74343;BME280;62767;50.300;8.070;2022-08-19T08:47:12;99764.84;;;26.12;49.39
74343;BME280;62767;50.300;8.070;2022-08-19T08:49:46;99760.00;;;26.07;49.75
74343;BME280;62767;50.300;8.070;2022-08-19T08:54:50;99753.63;;;26.43;48.07
74343;BME280;62767;50.300;8.070;2022-08-19T09:00:29;99750.81;;;26.07;50.04
74343;BME280;62767;50.300;8.070;2022-08-19T09:02:57;99756.47;;;26.37;48.55
74343;BME280;62767;50.300;8.070;2022-08-19T09:05:26;99755.47;;;26.31;48.80
74343;BME280;62767;50.300;8.070;2022-08-19T09:10:34;99774.69;;;25.19;51.00
74343;BME280;62767;50.300;8.070;2022-08-19T09:15:52;99776.75;;;25.30;51.15
74343;BME280;62767;50.300;8.070;2022-08-19T09:18:18;99760.19;;;26.06;48.75
74343;BME280;62767;50.300;8.070;2022-08-19T09:20:44;99762.75;;;26.07;48.15
74343;BME280;62767;50.300;8.070;2022-08-19T09:23:12;99761.63;;;25.26;50.20
74343;BME280;62767;50.300;8.070;2022-08-19T09:25:37;99756.13;;;25.06;50.84
74343;BME280;62767;50.300;8.070;2022-08-19T09:28:05;99745.72;;;25.72;48.76
74343;BME280;62767;50.300;8.070;2022-08-19T09:30:40;99753.03;;;25.66;48.89
74343;BME280;62767;50.300;8.070;2022-08-19T09:33:06;99755.69;;;25.55;49.81
74343;BME280;62767;50.300;8.070;2022-08-19T09:35:33;99751.03;;;25.03;50.81
74343;BME280;62767;50.300;8.070;2022-08-19T09:37:59;99750.00;;;24.98;51.87
74343;BME280;62767;50.300;8.070;2022-08-19T09:40:29;99755.28;;;24.61;51.91
74343;BME280;62767;50.300;8.070;2022-08-19T09:42:55;99755.22;;;24.74;50.74
74343;BME280;62767;50.300;8.070;2022-08-19T09:45:22;99746.22;;;25.62;48.91
74343;BME280;62767;50.300;8.070;2022-08-19T09:47:52;99745.94;;;25.70;48.22
74343;BME280;62767;50.300;8.070;2022-08-19T09:50:18;99743.66;;;25.92;46.86
74343;BME280;62767;50.300;8.070;2022-08-19T09:52:43;99742.97;;;26.40;45.85
74343;BME280;62767;50.300;8.070;2022-08-19T09:55:10;99734.78;;;26.46;45.14
74343;BME280;62767;50.300;8.070;2022-08-19T09:57:37;99731.38;;;26.25;45.18
74343;BME280;62767;50.300;8.070;2022-08-19T10:00:04;99729.25;;;26.82;44.42
74343;BME280;62767;50.300;8.070;2022-08-19T10:02:33;99734.38;;;26.24;44.78
74343;BME280;62767;50.300;8.070;2022-08-19T10:04:59;99722.53;;;26.72;43.72
74343;BME280;62767;50.300;8.070;2022-08-19T10:07:43;99723.50;;;26.96;42.43
74343;BME280;62767;50.300;8.070;2022-08-19T10:10:09;99716.53;;;27.05;42.33
74343;BME280;62767;50.300;8.070;2022-08-19T10:12:35;99726.22;;;27.02;42.95
74343;BME280;62767;50.300;8.070;2022-08-19T10:15:02;99721.47;;;27.21;41.14
74343;BME280;62767;50.300;8.070;2022-08-19T10:17:28;99715.00;;;27.09;42.04
74343;BME280;62767;50.300;8.070;2022-08-19T10:19:54;99719.97;;;26.89;42.65
74343;BME280;62767;50.300;8.070;2022-08-19T10:22:19;99711.03;;;26.68;42.21
74343;BME280;62767;50.300;8.070;2022-08-19T10:24:45;99713.13;;;27.21;42.27
74343;BME280;62767;50.300;8.070;2022-08-19T10:27:11;99712.66;;;27.24;42.06
74343;BME280;62767;50.300;8.070;2022-08-19T10:29:39;99719.31;;;27.77;41.30
74343;BME280;62767;50.300;8.070;2022-08-19T10:32:05;99715.25;;;27.38;41.38
74343;BME280;62767;50.300;8.070;2022-08-19T10:34:32;99711.09;;;27.28;42.24
74343;BME280;62767;50.300;8.070;2022-08-19T10:36:58;99709.69;;;27.38;41.84
74343;BME280;62767;50.300;8.070;2022-08-19T10:39:26;99708.38;;;26.92;41.15
74343;BME280;62767;50.300;8.070;2022-08-19T10:41:54;99702.97;;;26.78;41.19
74343;BME280;62767;50.300;8.070;2022-08-19T10:44:21;99700.09;;;27.34;40.37
74343;BME280;62767;50.300;8.070;2022-08-19T10:46:48;99708.19;;;26.56;40.84
74343;BME280;62767;50.300;8.070;2022-08-19T10:49:14;99708.72;;;26.65;40.59
74343;BME280;62767;50.300;8.070;2022-08-19T10:51:40;99695.16;;;27.47;39.85
74343;BME280;62767;50.300;8.070;2022-08-19T10:54:25;99688.13;;;28.22;37.76
74343;BME280;62767;50.300;8.070;2022-08-19T10:57:11;99697.03;;;28.36;37.61
74343;BME280;62767;50.300;8.070;2022-08-19T10:59:36;99690.38;;;29.01;36.49
74343;BME280;62767;50.300;8.070;2022-08-19T11:02:04;99690.00;;;28.69;36.82
74343;BME280;62767;50.300;8.070;2022-08-19T11:04:31;99682.00;;;29.29;35.52
74343;BME280;62767;50.300;8.070;2022-08-19T11:06:57;99683.84;;;28.95;36.52
74343;BME280;62767;50.300;8.070;2022-08-19T11:09:25;99682.44;;;27.51;39.05
74343;BME280;62767;50.300;8.070;2022-08-19T11:11:52;99680.44;;;28.53;36.91
74343;BME280;62767;50.300;8.070;2022-08-19T11:14:20;99672.88;;;28.65;35.04
74343;BME280;62767;50.300;8.070;2022-08-19T11:16:47;99685.69;;;27.79;37.65
74343;BME280;62767;50.300;8.070;2022-08-19T11:19:14;99679.31;;;27.60;38.18
74343;BME280;62767;50.300;8.070;2022-08-19T11:21:44;99676.84;;;28.05;37.37
74343;BME280;62767;50.300;8.070;2022-08-19T11:24:15;99676.38;;;27.43;38.76
74343;BME280;62767;50.300;8.070;2022-08-19T11:26:42;99670.06;;;27.24;38.80
74343;BME280;62767;50.300;8.070;2022-08-19T11:29:09;99672.91;;;26.87;38.02
74343;BME280;62767;50.300;8.070;2022-08-19T11:31:37;99674.06;;;27.93;35.99
74343;BME280;62767;50.300;8.070;2022-08-19T11:34:06;99681.66;;;28.21;35.39
74343;BME280;62767;50.300;8.070;2022-08-19T11:36:33;99681.19;;;28.48;34.73
74343;BME280;62767;50.300;8.070;2022-08-19T11:39:00;99664.13;;;28.73;35.18
74343;BME280;62767;50.300;8.070;2022-08-19T11:41:26;99676.13;;;28.45;34.36
74343;BME280;62767;50.300;8.070;2022-08-19T11:43:53;99660.84;;;28.76;34.93
74343;BME280;62767;50.300;8.070;2022-08-19T11:46:21;99680.78;;;28.56;34.79
74343;BME280;62767;50.300;8.070;2022-08-19T11:48:47;99666.16;;;29.18;33.75
74343;BME280;62767;50.300;8.070;2022-08-19T11:51:18;99664.31;;;28.95;33.20
74343;BME280;62767;50.300;8.070;2022-08-19T11:53:44;99656.88;;;29.01;33.72
74343;BME280;62767;50.300;8.070;2022-08-19T11:56:10;99652.47;;;28.76;34.96
74343;BME280;62767;50.300;8.070;2022-08-19T11:58:36;99655.94;;;28.95;34.78
74343;BME280;62767;50.300;8.070;2022-08-19T12:01:06;99667.81;;;28.62;33.73
74343;BME280;62767;50.300;8.070;2022-08-19T12:03:33;99660.91;;;28.53;34.57
74343;BME280;62767;50.300;8.070;2022-08-19T12:06:10;99648.22;;;28.33;34.58
74343;BME280;62767;50.300;8.070;2022-08-19T12:08:37;99643.84;;;28.37;34.41
74343;BME280;62767;50.300;8.070;2022-08-19T12:11:03;99646.69;;;28.66;34.51
74343;BME280;62767;50.300;8.070;2022-08-19T12:13:30;99635.13;;;29.31;33.22
74343;BME280;62767;50.300;8.070;2022-08-19T12:15:56;99642.06;;;28.72;33.62
74343;BME280;62767;50.300;8.070;2022-08-19T12:18:22;99629.59;;;28.91;34.08
74343;BME280;62767;50.300;8.070;2022-08-19T12:20:53;99647.59;;;28.83;33.05
74343;BME280;62767;50.300;8.070;2022-08-19T12:23:20;99632.44;;;28.79;33.40
74343;BME280;62767;50.300;8.070;2022-08-19T12:25:47;99617.56;;;29.65;32.46
74343;BME280;62767;50.300;8.070;2022-08-19T12:28:20;99627.22;;;29.96;31.68
74343;BME280;62767;50.300;8.070;2022-08-19T12:30:48;99630.72;;;29.36;30.90
74343;BME280;62767;50.300;8.070;2022-08-19T12:33:15;99620.75;;;29.56;31.58
74343;BME280;62767;50.300;8.070;2022-08-19T12:35:42;99612.97;;;29.59;31.39
74343;BME280;62767;50.300;8.070;2022-08-19T12:38:09;99603.78;;;29.97;31.24
74343;BME280;62767;50.300;8.070;2022-08-19T12:40:35;99618.84;;;29.96;30.39
74343;BME280;62767;50.300;8.070;2022-08-19T12:43:01;99631.69;;;28.84;32.60
74343;BME280;62767;50.300;8.070;2022-08-19T12:45:26;99617.78;;;28.43;34.59
74343;BME280;62767;50.300;8.070;2022-08-19T12:47:52;99619.59;;;28.78;34.33
74343;BME280;62767;50.300;8.070;2022-08-19T12:50:18;99631.94;;;28.54;35.04
74343;BME280;62767;50.300;8.070;2022-08-19T12:52:44;99635.38;;;29.30;33.27
74343;BME280;62767;50.300;8.070;2022-08-19T12:55:10;99629.31;;;29.67;31.53
74343;BME280;62767;50.300;8.070;2022-08-19T12:57:37;99626.47;;;30.00;30.90
74343;BME280;62767;50.300;8.070;2022-08-19T13:00:09;99628.22;;;29.85;31.38
74343;BME280;62767;50.300;8.070;2022-08-19T13:02:40;99630.25;;;29.55;31.51
74343;BME280;62767;50.300;8.070;2022-08-19T13:05:09;99636.09;;;29.88;30.75
74343;BME280;62767;50.300;8.070;2022-08-19T13:07:37;99628.09;;;30.35;30.38
74343;BME280;62767;50.300;8.070;2022-08-19T13:10:08;99622.31;;;30.03;29.92
74343;BME280;62767;50.300;8.070;2022-08-19T13:12:35;99637.03;;;30.15;30.32
74343;BME280;62767;50.300;8.070;2022-08-19T13:15:00;99632.59;;;29.97;31.00
74343;BME280;62767;50.300;8.070;2022-08-19T13:17:27;99648.63;;;29.23;32.57